Time;durP1;ratioP1;P1;durP2;ratioP2;P2;SDS_P1;SDS_P2;PMS_P1;PMS_P2;Temp;Humidity;BMP_temperature;BMP_pressure;BME280_temperature;BME280_humidity;BME280_pressure;Samples;Min_cycle;Max_cycle;Signal;HPM_P1;HPM_P2
2023/03/01 00:01:29;;;;;;;1999.90;999.90;;;0.00;99.90;;;;;;5032739;28;20463;-69
2023/03/01 00:03:56;;;;;;;1999.90;999.90;;;0.00;99.90;;;;;;5031463;28;20830;-67
2023/03/01 00:06:24;;;;;;;1999.90;999.90;;;0.00;99.90;;;;;;5032594;28;20483;-68
2023/03/01 00:08:51;;;;;;;1999.90;999.90;;;-0.10;99.90;;;;;;5032720;28;20457;-69
2023/03/01 00:11:20;;;;;;;1999.90;999.90;;;-0.10;99.90;;;;;;5032802;28;20548;-68
2023/03/01 00:13:51;;;;;;;1999.90;999.90;;;-0.20;99.90;;;;;;5031527;28;21027;-68
2023/03/01 00:16:20;;;;;;;1999.90;999.90;;;-0.20;99.90;;;;;;5032482;28;20920;-67
2023/03/01 00:18:47;;;;;;;1999.90;999.90;;;-0.20;99.90;;;;;;5032296;28;20444;-69
2023/03/01 00:21:14;;;;;;;1999.90;999.90;;;-0.30;99.90;;;;;;5032545;28;20448;-68
2023/03/01 00:23:41;;;;;;;1999.90;999.90;;;-0.30;99.90;;;;;;5031318;28;20473;-67
2023/03/01 00:26:10;;;;;;;1999.90;999.90;;;-0.30;99.90;;;;;;5032053;28;20452;-68
2023/03/01 00:28:37;;;;;;;1999.90;999.90;;;-0.30;99.90;;;;;;5032069;28;20456;-67
2023/03/01 00:31:07;;;;;;;1999.90;999.90;;;-0.40;99.90;;;;;;5031994;28;20453;-67
2023/03/01 00:33:34;;;;;;;1999.90;999.90;;;-0.50;99.90;;;;;;5030744;28;20483;-68
2023/03/01 00:36:01;;;;;;;1999.90;999.90;;;-0.60;99.90;;;;;;5032291;28;20453;-67
2023/03/01 00:38:28;;;;;;;1999.90;999.90;;;-0.80;99.90;;;;;;5031633;28;20449;-67
2023/03/01 00:40:55;;;;;;;1999.90;999.90;;;-0.80;99.90;;;;;;5032109;28;20452;-67
2023/03/01 00:43:22;;;;;;;1999.90;999.90;;;-0.90;99.90;;;;;;5030639;28;20465;-67
2023/03/01 00:45:49;;;;;;;1999.90;999.90;;;-0.90;99.90;;;;;;5031832;28;20449;-68
2023/03/01 00:48:17;;;;;;;1999.90;999.90;;;-1.00;99.90;;;;;;5032132;28;20484;-67
2023/03/01 00:50:44;;;;;;;1999.90;999.90;;;-1.00;99.90;;;;;;5032232;28;20453;-67
2023/03/01 00:53:10;;;;;;;1999.90;999.90;;;-1.10;99.90;;;;;;5030796;28;20476;-67
2023/03/01 00:55:37;;;;;;;1999.90;999.90;;;-1.10;99.90;;;;;;5049022;28;20452;-68
2023/03/01 00:58:04;;;;;;;1999.90;999.90;;;-1.00;99.90;;;;;;5052179;28;20521;-66
2023/03/01 01:00:31;;;;;;;1999.90;999.90;;;-0.90;99.90;;;;;;5051753;28;20456;-67
2023/03/01 01:02:58;;;;;;;1999.90;999.90;;;-0.70;99.90;;;;;;5050685;28;20916;-67
2023/03/01 01:05:26;;;;;;;1999.90;999.90;;;-0.60;99.90;;;;;;5051686;28;20948;-66
2023/03/01 01:07:52;;;;;;;1999.90;999.90;;;-0.50;99.90;;;;;;5051636;28;20490;-66
2023/03/01 01:10:19;;;;;;;1999.90;999.90;;;-0.50;99.90;;;;;;5051742;28;20470;-65
2023/03/01 01:12:46;;;;;;;1999.90;999.90;;;-0.50;99.90;;;;;;5050336;28;20476;-67
2023/03/01 01:15:16;;;;;;;1999.90;999.90;;;-0.40;99.90;;;;;;5051751;28;20823;-67
2023/03/01 01:17:43;;;;;;;1999.90;999.90;;;-0.40;99.90;;;;;;5051724;28;21000;-66
2023/03/01 01:20:11;;;;;;;1999.90;999.90;;;-0.50;99.90;;;;;;5051717;28;20443;-68
2023/03/01 01:22:39;;;;;;;1999.90;999.90;;;-0.50;99.90;;;;;;5050302;28;20478;-68
2023/03/01 01:25:07;;;;;;;1999.90;999.90;;;-0.60;99.90;;;;;;5050917;28;20455;-68
2023/03/01 01:27:34;;;;;;;1999.90;999.90;;;-0.60;99.90;;;;;;5051144;28;20486;-67
2023/03/01 01:30:00;;;;;;;1999.90;999.90;;;-0.70;99.90;;;;;;5050922;28;20942;-68
2023/03/01 01:32:27;;;;;;;1999.90;999.90;;;-0.80;99.90;;;;;;5049839;28;20448;-65
2023/03/01 01:34:54;;;;;;;1999.90;999.90;;;-0.80;99.90;;;;;;5050920;28;20459;-67
2023/03/01 01:37:21;;;;;;;1999.90;999.90;;;-0.90;99.90;;;;;;5050694;28;20447;-67
2023/03/01 01:39:49;;;;;;;1999.90;999.90;;;-0.90;99.90;;;;;;5050949;28;20497;-67
2023/03/01 01:42:18;;;;;;;1999.90;999.90;;;-0.90;99.90;;;;;;5049902;28;21218;-67
2023/03/01 01:44:47;;;;;;;1999.90;999.90;;;-0.80;99.90;;;;;;5050073;28;20451;-68
2023/03/01 01:47:17;;;;;;;1999.90;999.90;;;-0.70;99.90;;;;;;5049533;28;21028;-67
2023/03/01 01:49:48;;;;;;;1999.90;999.90;;;-0.60;99.90;;;;;;5050808;28;20821;-66
2023/03/01 01:52:20;;;;;;;1999.90;999.90;;;-0.60;99.90;;;;;;5050492;28;20447;-67
2023/03/01 01:54:54;;;;;;;1999.90;999.90;;;-0.60;99.90;;;;;;5050065;28;20454;-68
2023/03/01 01:57:26;;;;;;;1999.90;999.90;;;-0.50;99.90;;;;;;5050936;28;20474;-67
2023/03/01 01:59:57;;;;;;;1999.90;999.90;;;-0.50;99.90;;;;;;5041616;28;20445;-68
2023/03/01 02:02:25;;;;;;;1999.90;999.90;;;-0.50;99.90;;;;;;5029527;28;20449;-64
2023/03/01 02:04:59;;;;;;;1999.90;999.90;;;-0.50;99.90;;;;;;5030678;28;20445;-67
2023/03/01 02:07:26;;;;;;;1999.90;999.90;;;-0.50;99.90;;;;;;5030378;28;20526;-66
2023/03/01 02:09:55;;;;;;;1999.90;999.90;;;-0.40;99.90;;;;;;5030767;28;20890;-67
2023/03/01 02:12:24;;;;;;;1999.90;999.90;;;-0.40;99.90;;;;;;5029675;28;20959;-67
2023/03/01 02:14:51;;;;;;;1999.90;999.90;;;-0.30;99.90;;;;;;5030248;28;20456;-68
2023/03/01 02:17:20;;;;;;;1999.90;999.90;;;-0.20;99.90;;;;;;5030308;28;20449;-67
2023/03/01 02:20:00;;;;;;;1999.90;999.90;;;-0.20;99.90;;;;;;5030277;28;20449;-68
2023/03/01 02:22:31;;;;;;;1999.90;999.90;;;-0.20;99.90;;;;;;5029228;28;20441;-67
2023/03/01 02:25:09;;;;;;;1999.90;999.90;;;-0.10;99.90;;;;;;5029886;28;20825;-67
2023/03/01 02:27:45;;;;;;;1999.90;999.90;;;-0.10;99.90;;;;;;5030146;28;20484;-68
2023/03/01 02:30:13;;;;;;;1999.90;999.90;;;0.00;99.90;;;;;;5030082;28;20433;-67
2023/03/01 02:32:41;;;;;;;1999.90;999.90;;;0.10;99.90;;;;;;5029077;28;20477;-67
2023/03/01 02:35:11;;;;;;;1999.90;999.90;;;0.10;99.90;;;;;;5029767;28;20495;-68
2023/03/01 02:37:38;;;;;;;1999.90;999.90;;;0.20;99.90;;;;;;5030022;28;20447;-68
2023/03/01 02:40:11;;;;;;;1999.90;999.90;;;0.20;99.90;;;;;;5030718;28;20455;-67
2023/03/01 02:42:45;;;;;;;1999.90;999.90;;;0.20;99.90;;;;;;5028725;28;20477;-68
2023/03/01 02:45:13;;;;;;;1999.90;999.90;;;0.20;99.90;;;;;;5030142;28;20451;-68
2023/03/01 02:47:40;;;;;;;1999.90;999.90;;;0.20;99.90;;;;;;5029746;28;20572;-67
2023/03/01 02:50:19;;;;;;;1999.90;999.90;;;0.20;99.90;;;;;;5030171;28;20448;-67
2023/03/01 02:52:48;;;;;;;1999.90;999.90;;;0.30;99.90;;;;;;5028449;28;20477;-68
2023/03/01 02:55:18;;;;;;;1999.90;999.90;;;0.40;99.90;;;;;;5030116;28;20445;-67
2023/03/01 02:57:50;;;;;;;1999.90;999.90;;;0.40;99.90;;;;;;5029982;28;20489;-66
2023/03/01 03:00:21;;;;;;;1999.90;999.90;;;0.50;99.90;;;;;;5029842;28;20457;-67
2023/03/01 03:02:49;;;;;;;1999.90;999.90;;;0.50;99.90;;;;;;5028112;28;20461;-67
2023/03/01 03:05:17;;;;;;;1999.90;999.90;;;0.60;99.90;;;;;;5029917;28;20456;-67
2023/03/01 03:07:46;;;;;;;1999.90;999.90;;;0.60;99.90;;;;;;5030244;28;20498;-66
2023/03/01 03:10:16;;;;;;;1999.90;999.90;;;0.70;99.90;;;;;;5029952;28;20457;-68
2023/03/01 03:12:43;;;;;;;1999.90;999.90;;;0.70;99.90;;;;;;5036671;28;20469;-67
2023/03/01 03:15:12;;;;;;;1999.90;999.90;;;0.80;99.90;;;;;;5049944;28;20444;-67
2023/03/01 03:17:42;;;;;;;1999.90;999.90;;;0.80;99.90;;;;;;5049561;28;21004;-68
2023/03/01 03:20:12;;;;;;;1999.90;999.90;;;0.90;99.90;;;;;;5049535;28;20455;-68
2023/03/01 03:22:40;;;;;;;1999.90;999.90;;;0.90;99.90;;;;;;5048298;28;20463;-66
2023/03/01 03:25:10;;;;;;;1999.90;999.90;;;0.90;99.90;;;;;;5049598;28;20486;-67
2023/03/01 03:27:37;;;;;;;1999.90;999.90;;;0.80;99.90;;;;;;5049275;28;20538;-66
2023/03/01 03:30:08;;;;;;;1999.90;999.90;;;0.80;99.90;;;;;;5049676;28;20447;-67
2023/03/01 03:32:35;;;;;;;1999.90;999.90;;;0.80;99.90;;;;;;5048442;28;20735;-67
2023/03/01 03:35:08;;;;;;;1999.90;999.90;;;0.80;99.90;;;;;;5048907;28;20455;-66
2023/03/01 03:40:20;;;;;;;1999.90;999.90;;;0.80;99.90;;;;;;5049227;28;20431;-68
2023/03/01 03:42:47;;;;;;;1999.90;999.90;;;0.80;99.90;;;;;;5048324;28;20473;-67
2023/03/01 03:45:15;;;;;;;1999.90;999.90;;;0.80;99.90;;;;;;5048972;28;20505;-67
2023/03/01 03:47:42;;;;;;;1999.90;999.90;;;0.90;99.90;;;;;;5049192;28;21209;-67
2023/03/01 03:50:12;;;;;;;1999.90;999.90;;;1.00;99.90;;;;;;5049387;28;20824;-67
2023/03/01 03:52:39;;;;;;;1999.90;999.90;;;1.10;99.90;;;;;;5047702;28;20468;-67
2023/03/01 03:55:10;;;;;;;1999.90;999.90;;;1.10;99.90;;;;;;5048921;28;20452;-67
2023/03/01 03:57:37;;;;;;;1999.90;999.90;;;1.10;99.90;;;;;;5048794;28;20522;-67
2023/03/01 04:00:12;;;;;;;1999.90;999.90;;;1.10;99.90;;;;;;5049407;28;20448;-67
2023/03/01 04:02:39;;;;;;;1999.90;999.90;;;1.20;99.90;;;;;;5047894;28;20475;-67
2023/03/01 04:05:07;;;;;;;1999.90;999.90;;;1.20;99.90;;;;;;5049228;28;20459;-67
2023/03/01 04:07:36;;;;;;;1999.90;999.90;;;1.20;99.90;;;;;;5049129;28;20476;-67
2023/03/01 04:10:03;;;;;;;1999.90;999.90;;;1.10;99.90;;;;;;5049720;28;20965;-68
2023/03/01 04:12:30;;;;;;;1999.90;999.90;;;1.20;99.90;;;;;;5052169;28;20444;-67
2023/03/01 04:14:56;;;;;;;1999.90;999.90;;;1.20;99.90;;;;;;5052435;28;20459;-68
2023/03/01 04:17:23;;;;;;;1999.90;999.90;;;1.20;99.90;;;;;;5032936;28;20445;-65
2023/03/01 04:19:50;;;;;;;1999.90;999.90;;;1.30;99.90;;;;;;5032974;28;20449;-66
2023/03/01 04:22:17;;;;;;;1999.90;999.90;;;1.40;99.90;;;;;;5032055;28;20453;-67
2023/03/01 04:24:45;;;;;;;1999.90;999.90;;;1.40;99.90;;;;;;5031849;28;20453;-66
2023/03/01 04:27:12;;;;;;;1999.90;999.90;;;1.40;99.90;;;;;;5032336;28;20449;-67
2023/03/01 04:29:39;;;;;;;1999.90;999.90;;;1.40;99.90;;;;;;5032752;28;20441;-67
2023/03/01 04:32:06;;;;;;;1999.90;999.90;;;1.40;99.90;;;;;;5031748;28;20977;-65
2023/03/01 04:34:32;;;;;;;1999.90;999.90;;;1.30;99.90;;;;;;5031191;28;20473;-67
2023/03/01 04:36:59;;;;;;;1999.90;999.90;;;1.30;99.90;;;;;;5032201;28;21038;-67
2023/03/01 04:39:26;;;;;;;1999.90;999.90;;;1.40;99.90;;;;;;5031905;28;20998;-66
2023/03/01 04:41:54;;;;;;;1999.90;999.90;;;1.40;99.90;;;;;;5032453;28;20449;-67
2023/03/01 04:44:21;;;;;;;1999.90;999.90;;;1.40;99.90;;;;;;5030788;28;20465;-67
2023/03/01 04:46:49;;;;;;;1999.90;999.90;;;1.40;99.90;;;;;;5032240;28;20449;-66
2023/03/01 04:49:16;;;;;;;1999.90;999.90;;;1.50;99.90;;;;;;5031823;28;20945;-67
2023/03/01 04:51:43;;;;;;;1999.90;999.90;;;1.50;99.90;;;;;;5032056;28;20453;-65
2023/03/01 04:54:10;;;;;;;1999.90;999.90;;;1.40;99.90;;;;;;5030712;28;20464;-66
2023/03/01 04:56:37;;;;;;;1999.90;999.90;;;1.30;99.90;;;;;;5031817;28;20449;-66
2023/03/01 04:59:05;;;;;;;1999.90;999.90;;;1.30;99.90;;;;;;5032140;28;20495;-67
2023/03/01 05:01:32;;;;;;;1999.90;999.90;;;1.20;99.90;;;;;;5031794;28;20453;-66
2023/03/01 05:04:02;;;;;;;1999.90;999.90;;;1.20;99.90;;;;;;5030815;28;20989;-65
2023/03/01 05:06:29;;;;;;;1999.90;999.90;;;1.10;99.90;;;;;;5032044;28;20839;-66
2023/03/01 05:08:56;;;;;;;1999.90;999.90;;;1.20;99.90;;;;;;5032084;28;20489;-66
2023/03/01 05:11:23;;;;;;;1999.90;999.90;;;1.30;99.90;;;;;;5031895;28;20453;-66
2023/03/01 05:13:54;;;;;;;1999.90;999.90;;;1.30;99.90;;;;;;5030019;28;20465;-67
2023/03/01 05:16:22;;;;;;;1999.90;999.90;;;1.30;99.90;;;;;;5031899;28;20452;-67
2023/03/01 05:18:50;;;;;;;1999.90;999.90;;;1.40;99.90;;;;;;5031166;28;20483;-65
2023/03/01 05:21:17;;;;;;;1999.90;999.90;;;1.40;99.90;;;;;;5030857;28;20576;-66
2023/03/01 05:23:44;;;;;;;1999.90;999.90;;;1.40;99.90;;;;;;5029925;28;20473;-66
2023/03/01 05:26:12;;;;;;;1999.90;999.90;;;1.40;99.90;;;;;;5031483;28;20456;-67
2023/03/01 05:28:39;;;;;;;1999.90;999.90;;;1.30;99.90;;;;;;5031217;28;20563;-67
2023/03/01 05:31:09;;;;;;;1999.90;999.90;;;1.20;99.90;;;;;;5030822;28;20456;-66
2023/03/01 05:33:38;;;;;;;1999.90;999.90;;;1.20;99.90;;;;;;5030053;28;20496;-66
2023/03/01 05:36:05;;;;;;;1999.90;999.90;;;1.10;99.90;;;;;;5030975;28;20452;-66
2023/03/01 05:38:32;;;;;;;1999.90;999.90;;;1.10;99.90;;;;;;5031224;28;20954;-68
2023/03/01 05:40:59;;;;;;;1999.90;999.90;;;1.10;99.90;;;;;;5030945;28;20724;-69
2023/03/01 05:43:26;;;;;;;1999.90;999.90;;;1.20;99.90;;;;;;5030102;28;20471;-66
2023/03/01 05:45:53;;;;;;;1999.90;999.90;;;1.20;99.90;;;;;;5027804;28;20477;-67
2023/03/01 05:48:20;;;;;;;1999.90;999.90;;;1.10;99.90;;;;;;5029007;28;21024;-68
2023/03/01 05:50:48;;;;;;;1999.90;999.90;;;1.20;99.90;;;;;;5030886;28;20484;-69
2023/03/01 05:53:18;;;;;;;1999.90;999.90;;;1.30;99.90;;;;;;5029434;28;20527;-67
2023/03/01 05:55:47;;;;;;;1999.90;999.90;;;1.20;99.90;;;;;;5030746;28;20456;-68
2023/03/01 05:58:15;;;;;;;1999.90;999.90;;;1.20;99.90;;;;;;5032434;28;20875;-66
2023/03/01 06:00:43;;;;;;;1999.90;999.90;;;1.30;99.90;;;;;;5030629;28;20445;-67
2023/03/01 06:03:11;;;;;;;1999.90;999.90;;;1.30;99.90;;;;;;5030670;28;20936;-67
2023/03/01 06:05:39;;;;;;;1999.90;999.90;;;1.30;99.90;;;;;;5032596;28;20460;-67
2023/03/01 06:08:08;;;;;;;1999.90;999.90;;;1.20;99.90;;;;;;5031548;28;20488;-67
2023/03/01 06:10:35;;;;;;;1999.90;999.90;;;1.20;99.90;;;;;;5031071;28;20449;-65
2023/03/01 06:13:01;;;;;;;1999.90;999.90;;;1.20;99.90;;;;;;5029613;28;20473;-67
2023/03/01 06:15:28;;;;;;;1999.90;999.90;;;1.10;99.90;;;;;;5031314;28;20455;-66
2023/03/01 06:17:56;;;;;;;1999.90;999.90;;;1.10;99.90;;;;;;5032005;28;20449;-66
2023/03/01 06:20:26;;;;;;;1999.90;999.90;;;1.00;99.90;;;;;;5032351;28;20472;-65
2023/03/01 06:22:53;;;;;;;1999.90;999.90;;;0.90;99.90;;;;;;5028602;28;20468;-66
2023/03/01 06:25:23;;;;;;;1999.90;999.90;;;0.90;99.90;;;;;;5031114;28;20449;-68
2023/03/01 06:27:51;;;;;;;1999.90;999.90;;;0.80;99.90;;;;;;5031608;28;21292;-66
2023/03/01 06:30:20;;;;;;;1999.90;999.90;;;0.70;99.90;;;;;;5032342;28;20452;-74
2023/03/01 06:32:47;;;;;;;1999.90;999.90;;;0.70;99.90;;;;;;5029831;28;20469;-66
2023/03/01 06:35:17;;;;;;;1999.90;999.90;;;0.60;99.90;;;;;;5031277;28;20850;-67
2023/03/01 06:37:44;;;;;;;1999.90;999.90;;;0.50;99.90;;;;;;5030511;28;20510;-66
2023/03/01 06:40:13;;;;;;;1999.90;999.90;;;0.50;99.90;;;;;;5030017;28;20445;-66
2023/03/01 06:42:44;;;;;;;1999.90;999.90;;;0.40;99.90;;;;;;5029055;28;20469;-65
2023/03/01 06:45:12;;;;;;;1999.90;999.90;;;0.40;99.90;;;;;;5029867;28;20448;-65
2023/03/01 06:47:39;;;;;;;1999.90;999.90;;;0.40;99.90;;;;;;5030680;28;20449;-67
2023/03/01 06:50:06;;;;;;;1999.90;999.90;;;0.50;99.90;;;;;;5030034;28;21081;-65
2023/03/01 06:52:33;;;;;;;1999.90;999.90;;;0.50;99.90;;;;;;5028717;28;20452;-67
2023/03/01 06:55:00;;;;;;;1999.90;999.90;;;0.50;99.90;;;;;;5029132;28;20448;-66
2023/03/01 06:57:27;;;;;;;1999.90;999.90;;;0.60;99.90;;;;;;5029806;28;20566;-67
2023/03/01 06:59:55;;;;;;;1999.90;999.90;;;0.60;99.90;;;;;;5038996;28;20437;-65
2023/03/01 07:02:23;;;;;;;1999.90;999.90;;;0.60;99.90;;;;;;5029590;28;20437;-64
2023/03/01 07:04:50;;;;;;;1999.90;999.90;;;0.70;99.90;;;;;;5030619;28;20454;-66
2023/03/01 07:07:17;;;;;;;1999.90;999.90;;;0.70;99.90;;;;;;5030741;28;20649;-66
2023/03/01 07:09:44;;;;;;;1999.90;999.90;;;0.60;99.90;;;;;;5030608;28;20477;-67
2023/03/01 07:12:11;;;;;;;1999.90;999.90;;;0.70;99.90;;;;;;5029788;28;20459;-68
2023/03/01 07:14:38;;;;;;;1999.90;999.90;;;0.60;99.90;;;;;;5030083;28;20939;-67
2023/03/01 07:17:06;;;;;;;1999.90;999.90;;;0.60;99.90;;;;;;5031445;28;20715;-66
2023/03/01 07:19:33;;;;;;;1999.90;999.90;;;0.60;99.90;;;;;;5030317;28;20455;-67
2023/03/01 07:22:00;;;;;;;1999.90;999.90;;;0.70;99.90;;;;;;5030855;28;20449;-67
2023/03/01 07:24:27;;;;;;;1999.90;999.90;;;0.70;99.90;;;;;;5030323;28;20846;-67
2023/03/01 07:26:54;;;;;;;1999.90;999.90;;;0.70;99.90;;;;;;5030689;28;20451;-68
2023/03/01 07:29:21;;;;;;;1999.90;999.90;;;0.80;99.90;;;;;;5030597;28;20666;-66
2023/03/01 07:31:48;;;;;;;1999.90;999.90;;;0.90;99.90;;;;;;5031953;28;20448;-68
2023/03/01 07:34:16;;;;;;;1999.90;999.90;;;1.00;99.90;;;;;;5034637;28;20469;-68
2023/03/01 07:36:45;;;;;;;1999.90;999.90;;;1.00;99.90;;;;;;5036179;28;20440;-67
2023/03/01 07:39:12;;;;;;;1999.90;999.90;;;1.00;99.90;;;;;;5038792;28;20448;-67
2023/03/01 07:41:38;;;;;;;1999.90;999.90;;;1.10;99.90;;;;;;5043813;28;20459;-67
2023/03/01 07:44:06;;;;;;;1999.90;999.90;;;1.10;99.90;;;;;;5031611;28;20464;-67
2023/03/01 07:46:33;;;;;;;1999.90;999.90;;;1.10;99.90;;;;;;5047316;28;20432;-69
2023/03/01 07:49:00;;;;;;;1999.90;999.90;;;1.20;99.90;;;;;;5042047;28;20479;-67
2023/03/01 07:51:28;;;;;;;1999.90;999.90;;;1.30;99.90;;;;;;5040363;28;20487;-67
2023/03/01 07:53:55;;;;;;;1999.90;999.90;;;1.30;99.90;;;;;;5048412;28;20546;-68
2023/03/01 07:56:21;;;;;;;1999.90;999.90;;;1.40;99.90;;;;;;5036771;28;20454;-67
2023/03/01 07:58:48;;;;;;;1999.90;999.90;;;1.50;99.90;;;;;;5045746;28;20444;-68
2023/03/01 08:01:17;;;;;;;1999.90;999.90;;;1.50;99.90;;;;;;5043723;28;20444;-68
2023/03/01 08:03:44;;;;;;;1999.90;999.90;;;1.60;99.90;;;;;;5036791;28;20473;-68
2023/03/01 08:06:12;;;;;;;1999.90;999.90;;;1.60;99.90;;;;;;5049446;28;20531;-66
2023/03/01 08:08:41;;;;;;;1999.90;999.90;;;1.60;99.90;;;;;;5039081;28;20467;-67
2023/03/01 08:11:11;;;;;;;1999.90;999.90;;;1.70;99.90;;;;;;5042632;28;20449;-67
2023/03/01 08:13:37;;;;;;;1999.90;999.90;;;1.70;99.90;;;;;;5031738;28;20465;-67
2023/03/01 08:16:05;;;;;;;1999.90;999.90;;;1.80;99.90;;;;;;5032531;28;20532;-68
2023/03/01 08:18:32;;;;;;;1999.90;999.90;;;1.80;99.90;;;;;;5032792;28;20456;-68
2023/03/01 08:21:03;;;;;;;1999.90;999.90;;;1.90;99.90;;;;;;5032717;28;20453;-67
2023/03/01 08:23:30;;;;;;;1999.90;999.90;;;2.00;99.90;;;;;;5030969;28;20842;-67
2023/03/01 08:26:06;;;;;;;1999.90;999.90;;;2.00;99.90;;;;;;5032845;28;20449;-67
2023/03/01 08:28:33;;;;;;;1999.90;999.90;;;2.10;99.90;;;;;;5032261;28;20452;-69
2023/03/01 08:31:00;;;;;;;1999.90;999.90;;;2.00;99.90;;;;;;5032508;28;20947;-67
2023/03/01 08:33:27;;;;;;;1999.90;999.90;;;2.20;99.90;;;;;;5031184;28;20468;-67
2023/03/01 08:36:02;;;;;;;1999.90;999.90;;;2.40;99.90;;;;;;5032584;28;20444;-67
2023/03/01 08:38:29;;;;;;;1999.90;999.90;;;2.50;99.90;;;;;;5032361;28;20447;-66
2023/03/01 08:40:55;;;;;;;1999.90;999.90;;;2.60;99.90;;;;;;5032318;28;20441;-69
2023/03/01 08:43:24;;;;;;;1999.90;999.90;;;2.50;99.90;;;;;;5031176;28;20468;-67
2023/03/01 08:45:51;;;;;;;1999.90;999.90;;;2.50;99.90;;;;;;5032947;28;20484;-66
2023/03/01 08:48:18;;;;;;;1999.90;999.90;;;2.60;99.90;;;;;;5032195;28;20868;-68
2023/03/01 08:50:44;;;;;;;1999.90;999.90;;;2.70;99.90;;;;;;5032504;28;20476;-67
2023/03/01 08:53:11;;;;;;;1999.90;999.90;;;2.70;99.90;;;;;;5031013;28;20477;-67
2023/03/01 08:55:38;;;;;;;1999.90;999.90;;;2.80;99.90;;;;;;5031403;28;20445;-68
2023/03/01 08:58:05;;;;;;;1999.90;999.90;;;2.80;99.90;;;;;;5032213;28;20449;-66
2023/03/01 09:00:34;;;;;;;1999.90;999.90;;;3.00;99.90;;;;;;5032382;28;20816;-67
2023/03/01 09:03:01;;;;;;;1999.90;999.90;;;3.20;99.90;;;;;;5031372;28;20483;-67
2023/03/01 09:05:28;;;;;;;1999.90;999.90;;;3.30;99.90;;;;;;5032212;28;20444;-67
2023/03/01 09:07:54;;;;;;;1999.90;999.90;;;3.40;99.90;;;;;;5031990;28;20455;-68
2023/03/01 09:10:21;;;;;;;1999.90;999.90;;;3.40;99.90;;;;;;5031987;28;20497;-68
2023/03/01 09:12:48;;;;;;;1999.90;999.90;;;3.50;99.90;;;;;;5031046;28;20849;-67
2023/03/01 09:15:15;;;;;;;1999.90;999.90;;;3.40;99.90;;;;;;5031527;28;20961;-68
2023/03/01 09:17:43;;;;;;;1999.90;999.90;;;3.60;99.90;;;;;;5031803;28;20510;-67
2023/03/01 09:20:11;;;;;;;1999.90;999.90;;;3.80;99.90;;;;;;5031935;28;20437;-67
2023/03/01 09:22:38;;;;;;;1999.90;999.90;;;3.70;99.90;;;;;;5030450;28;20476;-66
2023/03/01 09:25:06;;;;;;;1999.90;999.90;;;3.60;99.90;;;;;;5031497;28;20905;-68
2023/03/01 09:27:32;;;;;;;1999.90;999.90;;;3.60;99.90;;;;;;5031382;28;20444;-66
2023/03/01 09:29:59;;;;;;;1999.90;999.90;;;3.50;99.90;;;;;;5031622;28;20477;-68
2023/03/01 09:32:26;;;;;;;1999.90;999.90;;;3.60;99.90;;;;;;5031254;28;20441;-66
2023/03/01 09:35:04;;;;;;;1999.90;999.90;;;3.80;99.90;;;;;;5031409;28;20449;-67
2023/03/01 09:37:32;;;;;;;1999.90;999.90;;;4.10;99.90;;;;;;5031562;28;20473;-69
2023/03/01 09:39:59;;;;;;;1999.90;999.90;;;4.30;99.90;;;;;;5031388;28;20456;-67
2023/03/01 09:42:28;;;;;;;1999.90;999.90;;;4.40;99.90;;;;;;5029806;28;20464;-68
2023/03/01 09:45:00;;;;;;;1999.90;999.90;;;4.30;99.90;;;;;;5031120;28;20448;-67
2023/03/01 09:47:31;;;;;;;1999.90;999.90;;;4.40;99.90;;;;;;5031274;28;20514;-68
2023/03/01 09:50:05;;;;;;;1999.90;999.90;;;4.70;99.90;;;;;;5031048;28;21037;-68
2023/03/01 09:52:40;;;;;;;1999.90;999.90;;;5.00;99.90;;;;;;5029798;28;20480;-67
2023/03/01 09:55:12;;;;;;;1999.90;999.90;;;4.90;99.90;;;;;;5031090;28;20455;-67
2023/03/01 09:57:45;;;;;;;1999.90;999.90;;;5.20;99.90;;;;;;5030770;28;20453;-66
2023/03/01 10:00:22;;;;;;;1999.90;999.90;;;5.20;99.90;;;;;;5030717;28;20445;-67
2023/03/01 10:02:54;;;;;;;1999.90;999.90;;;5.40;99.90;;;;;;5029661;28;20476;-67
2023/03/01 10:05:46;;;;;;;1999.90;999.90;;;5.60;99.90;;;;;;5030837;28;20449;-67
2023/03/01 10:08:29;;;;;;;1999.90;999.90;;;5.30;99.90;;;;;;5025809;28;20464;-68
2023/03/01 10:10:56;;;;;;;1999.90;999.90;;;5.40;99.90;;;;;;5030615;28;20520;-67
2023/03/01 10:13:28;;;;;;;1999.90;999.90;;;5.70;99.90;;;;;;5029386;28;20476;-67
2023/03/01 10:15:58;;;;;;;1999.90;999.90;;;6.10;99.90;;;;;;5030596;28;20448;-67
2023/03/01 10:18:28;;;;;;;1999.90;999.90;;;6.60;99.90;;;;;;5030249;28;20444;-67
2023/03/01 10:20:59;;;;;;;1999.90;999.90;;;6.90;99.90;;;;;;5030400;28;20444;-67
2023/03/01 10:23:27;;;;;;;1999.90;999.90;;;7.20;99.90;;;;;;5029167;28;20464;-68
2023/03/01 10:26:10;;;;;;;1999.90;999.90;;;7.10;99.90;;;;;;5030343;28;20457;-68
2023/03/01 10:28:48;;;;;;;1999.90;999.90;;;7.60;99.90;;;;;;5030514;28;20816;-67
2023/03/01 10:31:17;;;;;;;1999.90;999.90;;;8.00;99.10;;;;;;5030243;28;20476;-68
2023/03/01 10:33:43;;;;;;;1999.90;999.90;;;8.30;99.20;;;;;;5028821;28;20469;-67
2023/03/01 10:36:11;;;;;;;1999.90;999.90;;;9.00;97.90;;;;;;5030606;28;20452;-68
2023/03/01 10:38:52;;;;;;;1999.90;999.90;;;9.20;96.60;;;;;;5030111;28;20459;-69
2023/03/01 10:41:19;;;;;;;1999.90;999.90;;;9.80;95.90;;;;;;5030121;28;20437;-68
2023/03/01 10:43:48;;;;;;;1999.90;999.90;;;10.30;92.80;;;;;;5028712;28;20472;-67
2023/03/01 10:46:27;;;;;;;1999.90;999.90;;;9.90;94.50;;;;;;5029939;28;20996;-68
2023/03/01 10:49:15;;;;;;;1999.90;999.90;;;10.40;93.70;;;;;;5029809;28;20939;-67
2023/03/01 10:51:50;;;;;;;1999.90;999.90;;;11.00;92.90;;;;;;5030212;28;20445;-67
2023/03/01 10:54:25;;;;;;;1999.90;999.90;;;11.50;90.90;;;;;;5028565;28;20547;-65
2023/03/01 10:56:56;;;;;;;1999.90;999.90;;;11.20;90.60;;;;;;5030467;28;20850;-65
2023/03/01 10:59:29;;;;;;;1999.90;999.90;;;11.20;91.40;;;;;;5030566;28;20510;-65
2023/03/01 11:02:05;;;;;;;1999.90;999.90;;;11.60;90.80;;;;;;5030579;28;20441;-67
2023/03/01 11:04:38;;;;;;;1999.90;999.90;;;11.70;89.90;;;;;;5029274;28;20468;-65
2023/03/01 11:07:06;;;;;;;1999.90;999.90;;;11.80;89.80;;;;;;5031109;28;20448;-65
2023/03/01 11:09:37;;;;;;;1999.90;999.90;;;12.30;89.30;;;;;;5030277;28;20440;-66
2023/03/01 11:12:18;;;;;;;1999.90;999.90;;;12.00;86.20;;;;;;5030950;28;20465;-68
2023/03/01 11:14:49;;;;;;;1999.90;999.90;;;12.20;88.30;;;;;;5029927;28;20445;-66
2023/03/01 11:17:27;;;;;;;1999.90;999.90;;;12.30;85.10;;;;;;5029707;28;20472;-68
2023/03/01 11:20:14;;;;;;;1999.90;999.90;;;12.30;86.30;;;;;;5032405;28;20512;-69
2023/03/01 11:23:03;;;;;;;1999.90;999.90;;;12.90;85.50;;;;;;5032760;28;20483;-67
2023/03/01 11:25:36;;;;;;;1999.90;999.90;;;13.40;84.60;;;;;;5033689;28;20485;-67
2023/03/01 11:28:05;;;;;;;1999.90;999.90;;;13.60;82.60;;;;;;5033961;28;20449;-66
2023/03/01 11:30:36;;;;;;;1999.90;999.90;;;13.40;81.00;;;;;;5034117;28;20491;-68
2023/03/01 11:33:12;;;;;;;1999.90;999.90;;;13.80;83.10;;;;;;5032444;28;20469;-67
2023/03/01 11:35:45;;;;;;;1999.90;999.90;;;13.50;80.30;;;;;;5033254;28;20463;-67
2023/03/01 11:38:21;;;;;;;1999.90;999.90;;;13.80;81.70;;;;;;5033398;28;20467;-67
2023/03/01 11:40:54;;;;;;;1999.90;999.90;;;13.70;81.40;;;;;;5033405;28;20436;-68
2023/03/01 11:43:28;;;;;;;1999.90;999.90;;;13.40;81.40;;;;;;5032254;28;20493;-67
2023/03/01 11:46:27;;;;;;;1999.90;999.90;;;13.90;81.10;;;;;;5033540;28;20450;-68
2023/03/01 11:49:04;;;;;;;1999.90;999.90;;;14.20;78.50;;;;;;5033513;28;20453;-67
2023/03/01 11:51:42;;;;;;;1999.90;999.90;;;14.60;78.90;;;;;;5033344;28;20594;-69
2023/03/01 11:54:32;;;;;;;1999.90;999.90;;;15.20;76.10;;;;;;5032007;28;20982;-67
2023/03/01 11:57:05;;;;;;;1999.90;999.90;;;15.70;75.90;;;;;;5032995;28;20452;-66
2023/03/01 12:00:07;;;;;;;1999.90;999.90;;;16.20;75.00;;;;;;5033194;28;20449;-67
2023/03/01 12:03:09;;;;;;;1999.90;999.90;;;16.10;72.40;;;;;;5031830;28;20464;-68
2023/03/01 12:06:17;;;;;;;1999.90;999.90;;;16.50;72.90;;;;;;5013367;28;20448;-67
2023/03/01 12:08:56;;;;;;;1999.90;999.90;;;16.90;70.20;;;;;;5032832;28;20451;-66
2023/03/01 12:11:37;;;;;;;1999.90;999.90;;;16.60;68.60;;;;;;5032655;28;20479;-67
2023/03/01 12:14:21;;;;;;;1999.90;999.90;;;16.00;68.40;;;;;;5031795;28;20841;-66
2023/03/01 12:17:11;;;;;;;1999.90;999.90;;;16.20;70.30;;;;;;5032918;28;20444;-68
2023/03/01 12:19:57;;;;;;;1999.90;999.90;;;16.60;69.20;;;;;;5032664;28;20456;-66
2023/03/01 12:22:31;;;;;;;1999.90;999.90;;;14.70;68.20;;;;;;5031708;28;20444;-66